Time;durP1;ratioP1;P1;durP2;ratioP2;P2;SDS_P1;SDS_P2;PMS_P1;PMS_P2;Temp;Humidity;BMP_temperature;BMP_pressure;BME280_temperature;BME280_humidity;BME280_pressure;Samples;Min_cycle;Max_cycle;Signal;HPM_P1;HPM_P2
2023/01/07 00:00:22;;;;;;;9.52;6.45;;;;;;;;;;5080397;28;20047;-68
2023/01/07 00:02:50;;;;;;;9.60;6.43;;;;;;;;;;5082132;28;20044;-67
2023/01/07 00:05:16;;;;;;;9.03;6.80;;;;;;;;;;5086946;28;20091;-69
2023/01/07 00:07:43;;;;;;;10.45;7.70;;;;;;;;;;5085098;28;20839;-70
2023/01/07 00:10:09;;;;;;;10.88;7.60;;;;;;;;;;5058681;28;20105;-70
2023/01/07 00:12:35;;;;;;;11.82;7.03;;;;;;;;;;5094166;27;20047;-70
2023/01/07 00:15:01;;;;;;;10.07;6.97;;;;;;;;;;5079106;28;20071;-71
2023/01/07 00:17:28;;;;;;;9.95;6.10;;;;;;;;;;5093167;28;20517;-69
2023/01/07 00:19:54;;;;;;;9.65;6.53;;;;;;;;;;5080167;28;20048;-70
2023/01/07 00:22:20;;;;;;;8.90;6.38;;;;;;;;;;5079785;28;20044;-69
2023/01/07 00:24:47;;;;;;;8.25;6.25;;;;;;;;;;5077869;28;20051;-69
2023/01/07 00:27:13;;;;;;;11.38;6.25;;;;;;;;;;5081238;28;20055;-69
2023/01/07 00:29:40;;;;;;;9.23;6.75;;;;;;;;;;5093303;28;20044;-69
2023/01/07 00:32:06;;;;;;;9.25;6.28;;;;;;;;;;5084931;28;20044;-66
2023/01/07 00:34:33;;;;;;;10.02;6.05;;;;;;;;;;5067265;28;20082;-67
2023/01/07 00:37:48;;;;;;;10.70;7.05;;;;;;;;;;5080788;28;20484;-68
2023/01/07 00:39:45;;;;;;;12.70;7.05;;;;;;;;;;5075753;28;20048;-68
2023/01/07 00:44:57;;;;;;;10.75;6.97;;;;;;;;;;5081628;28;20844;-68
2023/01/07 00:47:23;;;;;;;10.65;7.32;;;;;;;;;;5089596;28;20050;-70
2023/01/07 00:49:49;;;;;;;16.35;8.07;;;;;;;;;;5081477;28;20048;-67
2023/01/07 00:52:15;;;;;;;11.43;7.35;;;;;;;;;;5089129;27;20052;-68
2023/01/07 00:54:42;;;;;;;11.30;7.20;;;;;;;;;;5073388;28;20497;-71
2023/01/07 00:57:11;;;;;;;10.32;7.80;;;;;;;;;;5081384;28;20496;-70
2023/01/07 00:59:37;;;;;;;11.82;6.78;;;;;;;;;;5087063;28;20052;-70
2023/01/07 01:02:04;;;;;;;9.23;7.18;;;;;;;;;;5085028;28;20051;-73
2023/01/07 01:04:30;;;;;;;12.20;6.75;;;;;;;;;;5072833;28;20052;-70
2023/01/07 01:06:56;;;;;;;10.65;7.35;;;;;;;;;;5088847;28;20056;-72
2023/01/07 01:09:25;;;;;;;10.68;7.28;;;;;;;;;;5087088;28;20044;-69
2023/01/07 01:11:51;;;;;;;10.23;6.60;;;;;;;;;;5101858;28;20052;-67
2023/01/07 01:14:17;;;;;;;12.60;6.95;;;;;;;;;;5088238;28;20051;-67
2023/01/07 01:16:44;;;;;;;9.77;6.65;;;;;;;;;;5091911;28;20135;-68
2023/01/07 01:19:10;;;;;;;9.65;6.57;;;;;;;;;;5081382;28;20836;-68
2023/01/07 01:21:39;;;;;;;11.43;5.93;;;;;;;;;;5085584;28;20254;-67
2023/01/07 01:24:05;;;;;;;8.68;6.07;;;;;;;;;;5085329;28;20051;-67
2023/01/07 01:26:32;;;;;;;12.05;6.00;;;;;;;;;;5758562;22;20314;-68
2023/01/07 01:28:58;;;;;;;11.98;6.82;;;;;;;;;;5039904;28;20132;-68
2023/01/07 01:31:25;;;;;;;10.80;5.78;;;;;;;;;;5040882;28;20136;-68
2023/01/07 01:33:55;;;;;;;9.10;6.38;;;;;;;;;;5040472;28;20496;-68
2023/01/07 01:36:21;;;;;;;7.95;5.47;;;;;;;;;;5044386;28;20053;-68
2023/01/07 01:38:48;;;;;;;12.45;6.30;;;;;;;;;;5046289;28;20057;-67
2023/01/07 01:41:17;;;;;;;9.90;6.07;;;;;;;;;;5043047;28;20119;-68
2023/01/07 01:43:44;;;;;;;9.18;6.60;;;;;;;;;;5041934;28;20048;-67
2023/01/07 01:46:15;;;;;;;9.57;5.15;;;;;;;;;;5041949;28;20099;-68
2023/01/07 01:48:44;;;;;;;8.90;5.80;;;;;;;;;;5040561;28;20045;-68
2023/01/07 01:51:12;;;;;;;7.95;5.22;;;;;;;;;;5046182;28;20045;-67
2023/01/07 01:53:38;;;;;;;10.60;5.25;;;;;;;;;;5046681;28;20060;-68
2023/01/07 01:56:13;;;;;;;6.00;4.90;;;;;;;;;;5046374;28;20053;-68
2023/01/07 01:58:42;;;;;;;8.60;5.35;;;;;;;;;;5042322;28;20055;-68
2023/01/07 02:01:08;;;;;;;7.50;4.80;;;;;;;;;;5034060;28;20042;-68
2023/01/07 02:17:38;;;;;;;7.57;5.07;;;;;;;;;;619651;26;20315;-68
2023/01/07 02:20:40;;;;;;;9.32;5.10;;;;;;;;;;4998802;28;20052;-68
2023/01/07 02:23:59;;;;;;;8.73;5.72;;;;;;;;;;4989609;28;20044;-68
2023/01/07 02:26:56;;;;;;;7.25;5.00;;;;;;;;;;4996826;28;20068;-68
2023/01/07 02:29:42;;;;;;;9.07;4.90;;;;;;;;;;5011859;28;20046;-68
2023/01/07 02:32:36;;;;;;;9.90;4.60;;;;;;;;;;5004908;28;20066;-68
2023/01/07 02:35:18;;;;;;;7.63;4.55;;;;;;;;;;5008721;28;20064;-68
2023/01/07 02:38:00;;;;;;;8.20;5.00;;;;;;;;;;5004892;28;20138;-68
2023/01/07 02:40:33;;;;;;;9.25;5.50;;;;;;;;;;5013420;28;20490;-68
2023/01/07 02:43:37;;;;;;;9.05;4.63;;;;;;;;;;5001390;28;20061;-68
2023/01/07 02:46:15;;;;;;;7.78;4.93;;;;;;;;;;4989628;28;20093;-68
2023/01/07 02:48:43;;;;;;;7.65;4.30;;;;;;;;;;5003262;28;20555;-68
2023/01/07 02:51:09;;;;;;;8.95;5.00;;;;;;;;;;5011884;28;20068;-68
2023/01/07 02:53:35;;;;;;;11.10;5.05;;;;;;;;;;5010437;28;20144;-68
2023/01/07 03:04:45;;;;;;;7.15;5.10;;;;;;;;;;2813666;22;20053;-67
2023/01/07 03:07:11;;;;;;;7.85;4.60;;;;;;;;;;5039443;22;20047;-66
2023/01/07 03:09:37;;;;;;;8.80;4.53;;;;;;;;;;4999496;28;20072;-66
2023/01/07 03:12:06;;;;;;;11.65;4.93;;;;;;;;;;5001369;28;20058;-66
2023/01/07 03:14:50;;;;;;;6.95;4.32;;;;;;;;;;4996299;28;20050;-67
2023/01/07 03:17:19;;;;;;;7.93;4.68;;;;;;;;;;4999810;28;20679;-66
2023/01/07 03:19:48;;;;;;;6.78;4.40;;;;;;;;;;5000570;28;20599;-67
2023/01/07 03:22:16;;;;;;;7.07;3.97;;;;;;;;;;4989744;28;20410;-67
2023/01/07 03:24:43;;;;;;;10.05;4.30;;;;;;;;;;4996846;28;20062;-67
2023/01/07 03:27:10;;;;;;;8.85;4.40;;;;;;;;;;5004431;28;20146;-66
2023/01/07 03:29:36;;;;;;;8.77;4.30;;;;;;;;;;5005438;28;20089;-67
2023/01/07 03:32:14;;;;;;;8.25;4.55;;;;;;;;;;5004031;28;20085;-66
2023/01/07 03:34:41;;;;;;;8.73;4.57;;;;;;;;;;4997408;28;20069;-66
2023/01/07 03:37:10;;;;;;;7.65;4.60;;;;;;;;;;5003686;28;20286;-67
2023/01/07 03:39:36;;;;;;;;;;;;;;;;;;5004922;28;20054;-67
2023/01/07 03:47:22;;;;;;;6.53;4.05;;;;;;;;;;1497239;26;20107;-66
2023/01/07 03:49:48;;;;;;;6.80;4.15;;;;;;;;;;5031795;28;20078;-66
2023/01/07 03:52:15;;;;;;;6.90;4.43;;;;;;;;;;5035367;28;20058;-66
2023/01/07 03:54:41;;;;;;;6.75;4.00;;;;;;;;;;5043279;28;20408;-67
2023/01/07 03:57:07;;;;;;;7.85;4.57;;;;;;;;;;5040978;28;20060;-66
2023/01/07 03:59:34;;;;;;;7.95;4.22;;;;;;;;;;5031302;28;20072;-67
2023/01/07 04:02:00;;;;;;;5.05;3.60;;;;;;;;;;5037196;28;20121;-67
2023/01/07 04:04:27;;;;;;;5.10;3.70;;;;;;;;;;5034033;28;20045;-67
2023/01/07 04:06:53;;;;;;;6.72;3.67;;;;;;;;;;5044438;28;20141;-66
2023/01/07 04:09:20;;;;;;;6.50;4.43;;;;;;;;;;5033090;28;20064;-66
2023/01/07 04:11:47;;;;;;;6.80;3.85;;;;;;;;;;5043163;28;20049;-66
2023/01/07 04:14:13;;;;;;;6.68;3.70;;;;;;;;;;5045747;28;20044;-66
2023/01/07 04:16:39;;;;;;;7.95;3.95;;;;;;;;;;5031533;28;20049;-66
2023/01/07 04:19:06;;;;;;;5.53;4.03;;;;;;;;;;5034860;28;20542;-66
2023/01/07 04:21:32;;;;;;;6.03;3.78;;;;;;;;;;5030002;28;20045;-66
2023/01/07 04:23:58;;;;;;;6.22;3.83;;;;;;;;;;5034049;28;20132;-67
2023/01/07 04:26:25;;;;;;;5.93;3.53;;;;;;;;;;5041475;28;20059;-66
2023/01/07 04:28:51;;;;;;;6.03;3.78;;;;;;;;;;5033271;28;20041;-67
2023/01/07 04:31:17;;;;;;;7.20;3.97;;;;;;;;;;5028392;28;20049;-67
2023/01/07 04:33:44;;;;;;;8.45;3.97;;;;;;;;;;5034691;28;20485;-66
2023/01/07 04:36:12;;;;;;;6.70;3.72;;;;;;;;;;5034982;28;20053;-66
2023/01/07 04:38:38;;;;;;;5.75;3.45;;;;;;;;;;5038603;28;20053;-66
2023/01/07 04:41:05;;;;;;;6.63;3.88;;;;;;;;;;5034434;28;20042;-66
2023/01/07 04:43:31;;;;;;;6.40;3.50;;;;;;;;;;5040646;28;20095;-66
2023/01/07 04:45:57;;;;;;;6.47;3.75;;;;;;;;;;5045082;28;20045;-67
2023/01/07 04:48:24;;;;;;;4.97;3.78;;;;;;;;;;5035854;28;20076;-66
2023/01/07 04:50:50;;;;;;;5.22;3.67;;;;;;;;;;5029599;28;20057;-66
2023/01/07 04:55:49;;;;;;;6.30;3.83;;;;;;;;;;5004144;28;20042;-67
2023/01/07 04:58:15;;;;;;;4.00;3.10;;;;;;;;;;5016925;28;20058;-67
2023/01/07 05:00:41;;;;;;;6.28;3.45;;;;;;;;;;5017188;28;20069;-67
2023/01/07 05:03:08;;;;;;;6.05;3.47;;;;;;;;;;5011559;28;20061;-67
2023/01/07 05:05:34;;;;;;;6.32;3.42;;;;;;;;;;5016406;28;20061;-67
2023/01/07 05:08:00;;;;;;;5.68;3.30;;;;;;;;;;5022261;28;20054;-67
2023/01/07 05:10:27;;;;;;;9.18;3.75;;;;;;;;;;5024949;28;20052;-67
2023/01/07 05:12:53;;;;;;;7.43;3.20;;;;;;;;;;5023043;28;20049;-67
2023/01/07 05:15:19;;;;;;;5.40;3.20;;;;;;;;;;5015940;28;20861;-67
2023/01/07 05:17:46;;;;;;;6.57;3.47;;;;;;;;;;5021135;28;20061;-67
2023/01/07 05:20:13;;;;;;;6.68;3.28;;;;;;;;;;5019486;28;20743;-67
2023/01/07 05:22:39;;;;;;;7.22;3.10;;;;;;;;;;5006027;28;20500;-67
2023/01/07 05:25:06;;;;;;;5.38;3.22;;;;;;;;;;5019237;28;20060;-67
2023/01/07 05:27:32;;;;;;;4.35;3.08;;;;;;;;;;5022299;28;20053;-67
2023/01/07 05:29:58;;;;;;;5.50;3.40;;;;;;;;;;5010725;28;20395;-67
2023/01/07 05:32:24;;;;;;;4.97;3.00;;;;;;;;;;5008691;28;20551;-67
2023/01/07 05:34:51;;;;;;;5.65;3.00;;;;;;;;;;5014266;28;20046;-67
2023/01/07 05:37:17;;;;;;;6.15;3.33;;;;;;;;;;5019858;28;20060;-68
2023/01/07 05:39:43;;;;;;;5.28;2.78;;;;;;;;;;5012539;28;20068;-67
2023/01/07 05:42:09;;;;;;;5.82;3.22;;;;;;;;;;4996218;28;20046;-67
2023/01/07 05:44:36;;;;;;;5.30;3.05;;;;;;;;;;5015171;28;20053;-67
2023/01/07 05:47:02;;;;;;;5.13;2.85;;;;;;;;;;5018211;28;20474;-67
2023/01/07 05:49:28;;;;;;;6.18;3.05;;;;;;;;;;5008021;28;20552;-67
2023/01/07 05:51:54;;;;;;;7.47;3.33;;;;;;;;;;5013162;28;20049;-67
2023/01/07 05:54:21;;;;;;;5.72;3.40;;;;;;;;;;5013410;28;20548;-67
2023/01/07 05:56:47;;;;;;;5.00;2.85;;;;;;;;;;5021297;28;20099;-67
2023/01/07 05:59:13;;;;;;;4.93;3.15;;;;;;;;;;5021252;28;20397;-67
2023/01/07 06:01:39;;;;;;;6.03;3.20;;;;;;;;;;5017709;28;20061;-68
2023/01/07 06:04:07;;;;;;;6.32;2.70;;;;;;;;;;5014951;28;20045;-67
2023/01/07 06:06:33;;;;;;;9.20;3.45;;;;;;;;;;5016261;28;20057;-68
2023/01/07 06:08:59;;;;;;;6.10;3.28;;;;;;;;;;5012747;28;20542;-67
2023/01/07 06:11:26;;;;;;;5.15;3.00;;;;;;;;;;5012985;28;20053;-68
2023/01/07 06:13:52;;;;;;;4.90;2.92;;;;;;;;;;5024137;28;20052;-68
2023/01/07 06:16:18;;;;;;;3.75;2.65;;;;;;;;;;5010838;28;20057;-67
2023/01/07 06:18:44;;;;;;;4.45;2.47;;;;;;;;;;5021228;28;20064;-67
2023/01/07 06:21:11;;;;;;;5.35;2.72;;;;;;;;;;5016926;28;20056;-66
2023/01/07 06:23:37;;;;;;;5.35;2.83;;;;;;;;;;5014668;28;20050;-67
2023/01/07 06:26:03;;;;;;;4.68;2.78;;;;;;;;;;5008627;28;20050;-67
2023/01/07 06:28:30;;;;;;;4.70;2.55;;;;;;;;;;5005941;28;20468;-69
2023/01/07 06:30:56;;;;;;;5.07;2.70;;;;;;;;;;5020998;28;20103;-67
2023/01/07 06:33:23;;;;;;;7.55;3.15;;;;;;;;;;5019674;28;20082;-68
2023/01/07 06:35:49;;;;;;;6.22;2.90;;;;;;;;;;5010491;28;20112;-66
2023/01/07 06:38:15;;;;;;;5.60;2.78;;;;;;;;;;5014432;28;20068;-67
2023/01/07 06:40:43;;;;;;;5.90;2.75;;;;;;;;;;5024977;28;20053;-68
2023/01/07 06:43:09;;;;;;;4.22;2.40;;;;;;;;;;5018193;28;20096;-66
2023/01/07 06:45:36;;;;;;;3.47;2.63;;;;;;;;;;5015322;28;20050;-67
2023/01/07 06:48:02;;;;;;;4.95;2.25;;;;;;;;;;5027843;28;20132;-66
2023/01/07 06:50:29;;;;;;;5.97;2.30;;;;;;;;;;5020168;28;20223;-68
2023/01/07 06:52:55;;;;;;;2.90;2.17;;;;;;;;;;5010940;28;20057;-66
2023/01/07 06:55:22;;;;;;;5.65;2.20;;;;;;;;;;5011171;28;20054;-69
2023/01/07 06:57:48;;;;;;;3.03;2.30;;;;;;;;;;5017072;28;20041;-69
2023/01/07 07:00:14;;;;;;;5.32;2.22;;;;;;;;;;5012099;28;20061;-67
2023/01/07 07:02:41;;;;;;;5.47;2.20;;;;;;;;;;5010452;28;20050;-68
2023/01/07 07:05:07;;;;;;;3.97;2.15;;;;;;;;;;5010648;28;20084;-69
2023/01/07 07:07:34;;;;;;;5.30;2.00;;;;;;;;;;5022415;28;20061;-67
2023/01/07 07:10:05;;;;;;;4.00;1.95;;;;;;;;;;5019485;28;20061;-68
2023/01/07 07:12:32;;;;;;;4.60;2.20;;;;;;;;;;5012574;28;20885;-67
2023/01/07 07:14:59;;;;;;;3.83;2.35;;;;;;;;;;5018005;28;20057;-68
2023/01/07 07:17:25;;;;;;;2.45;1.55;;;;;;;;;;5013793;28;20053;-68
2023/01/07 07:19:52;;;;;;;4.43;2.00;;;;;;;;;;4996916;28;20049;-69
2023/01/07 07:22:18;;;;;;;3.53;1.85;;;;;;;;;;5019412;28;20065;-68
2023/01/07 07:24:44;;;;;;;2.92;2.10;;;;;;;;;;5015633;28;20057;-68
2023/01/07 07:27:11;;;;;;;4.97;1.70;;;;;;;;;;5024707;28;20045;-69
2023/01/07 07:29:37;;;;;;;3.88;1.92;;;;;;;;;;5018647;28;20420;-69
2023/01/07 07:32:04;;;;;;;4.63;1.77;;;;;;;;;;5016350;28;20053;-69
2023/01/07 07:34:30;;;;;;;3.67;1.75;;;;;;;;;;5018125;28;20061;-68
2023/01/07 07:36:56;;;;;;;4.75;1.55;;;;;;;;;;5014054;28;20139;-69
2023/01/07 07:39:22;;;;;;;4.03;1.73;;;;;;;;;;5011709;28;20052;-68
2023/01/07 07:41:49;;;;;;;2.03;1.50;;;;;;;;;;5018305;28;20049;-69
2023/01/07 07:44:15;;;;;;;3.17;1.60;;;;;;;;;;5011018;28;20061;-68
2023/01/07 07:46:41;;;;;;;4.07;1.70;;;;;;;;;;5010642;28;20132;-68
2023/01/07 07:49:09;;;;;;;3.95;2.22;;;;;;;;;;5011535;28;20695;-68
2023/01/07 07:51:35;;;;;;;3.83;1.92;;;;;;;;;;5026298;28;20061;-69
2023/01/07 07:54:02;;;;;;;3.55;1.67;;;;;;;;;;5015146;28;20064;-68
2023/01/07 07:56:28;;;;;;;4.38;1.67;;;;;;;;;;5025204;28;20230;-67
2023/01/07 07:58:55;;;;;;;2.45;1.45;;;;;;;;;;5010976;28;20455;-69
2023/01/07 08:01:21;;;;;;;3.13;1.58;;;;;;;;;;5015324;28;20046;-67
2023/01/07 08:03:47;;;;;;;2.88;1.60;;;;;;;;;;5013246;28;20046;-69
2023/01/07 08:06:14;;;;;;;3.67;1.60;;;;;;;;;;5012858;28;20546;-68
2023/01/07 08:08:40;;;;;;;3.67;1.50;;;;;;;;;;5016876;28;20482;-69
2023/01/07 08:11:07;;;;;;;3.17;1.58;;;;;;;;;;5016151;28;20126;-68
2023/01/07 08:13:33;;;;;;;4.47;1.50;;;;;;;;;;5018428;28;20053;-68
2023/01/07 08:15:59;;;;;;;2.10;1.45;;;;;;;;;;5015761;28;20049;-69
2023/01/07 08:18:26;;;;;;;3.38;1.67;;;;;;;;;;5024071;28;20100;-69
2023/01/07 08:20:54;;;;;;;1.77;1.40;;;;;;;;;;5028501;28;20111;-70
2023/01/07 08:23:20;;;;;;;2.58;1.58;;;;;;;;;;5024356;28;20059;-69
2023/01/07 08:25:46;;;;;;;3.58;1.40;;;;;;;;;;5017137;28;20041;-67
2023/01/07 08:28:13;;;;;;;6.78;1.73;;;;;;;;;;5031213;28;20049;-68
2023/01/07 08:30:41;;;;;;;2.67;1.42;;;;;;;;;;5016367;28;20049;-68
2023/01/07 08:33:07;;;;;;;2.22;1.35;;;;;;;;;;5013016;28;20050;-69
2023/01/07 08:35:33;;;;;;;2.85;1.52;;;;;;;;;;5015988;28;20061;-68
2023/01/07 08:38:04;;;;;;;3.50;1.58;;;;;;;;;;5005052;28;20062;-69
2023/01/07 08:40:31;;;;;;;2.30;1.30;;;;;;;;;;5017535;28;20117;-69
2023/01/07 08:43:01;;;;;;;2.55;1.60;;;;;;;;;;5013442;28;20060;-68
2023/01/07 08:45:27;;;;;;;3.65;1.60;;;;;;;;;;5018230;28;20841;-68
2023/01/07 08:47:57;;;;;;;3.28;1.50;;;;;;;;;;5008052;28;20049;-69
2023/01/07 08:50:24;;;;;;;3.50;1.50;;;;;;;;;;5021903;28;20054;-68
2023/01/07 08:52:50;;;;;;;2.25;1.35;;;;;;;;;;5018467;28;20109;-68
2023/01/07 08:55:16;;;;;;;2.40;1.73;;;;;;;;;;5014589;28;20058;-68
2023/01/07 08:57:43;;;;;;;2.92;1.73;;;;;;;;;;5004090;28;20057;-68
2023/01/07 09:00:13;;;;;;;2.42;1.55;;;;;;;;;;5022128;28;20046;-68
2023/01/07 09:02:41;;;;;;;1.95;1.25;;;;;;;;;;5012743;28;20061;-68
2023/01/07 09:05:08;;;;;;;3.28;1.50;;;;;;;;;;5016927;28;20053;-68
2023/01/07 09:07:34;;;;;;;3.28;1.48;;;;;;;;;;5028157;28;23205;-68
2023/01/07 09:10:00;;;;;;;3.35;1.33;;;;;;;;;;5015560;28;20561;-69
2023/01/07 09:12:27;;;;;;;3.65;1.50;;;;;;;;;;5022482;28;20052;-68
2023/01/07 09:14:53;;;;;;;3.88;2.00;;;;;;;;;;5023313;28;20065;-69
2023/01/07 09:17:19;;;;;;;2.38;1.60;;;;;;;;;;5021981;28;20545;-68
2023/01/07 09:19:49;;;;;;;2.22;1.50;;;;;;;;;;5006881;28;20088;-68
2023/01/07 09:22:15;;;;;;;1.63;1.50;;;;;;;;;;5025143;28;20058;-68
2023/01/07 09:24:41;;;;;;;3.10;1.70;;;;;;;;;;5025689;28;20050;-67
2023/01/07 09:27:08;;;;;;;2.08;1.50;;;;;;;;;;5017482;28;20644;-68
2023/01/07 09:29:34;;;;;;;1.77;1.23;;;;;;;;;;5023576;28;20049;-68
2023/01/07 09:32:00;;;;;;;1.77;1.33;;;;;;;;;;5009590;28;20045;-68
2023/01/07 09:34:27;;;;;;;3.42;1.80;;;;;;;;;;5028727;28;20044;-69
2023/01/07 09:36:53;;;;;;;2.25;1.65;;;;;;;;;;5002268;28;20041;-69
2023/01/07 09:39:19;;;;;;;3.05;1.65;;;;;;;;;;5030833;28;20510;-69
2023/01/07 09:42:04;;;;;;;2.53;1.48;;;;;;;;;;5028319;28;20049;-72
2023/01/07 09:44:31;;;;;;;2.05;1.42;;;;;;;;;;5009421;28;20458;-69
2023/01/07 09:46:57;;;;;;;3.30;1.80;;;;;;;;;;5019086;28;20058;-68
2023/01/07 09:49:26;;;;;;;2.17;1.10;;;;;;;;;;5018418;28;20057;-69
2023/01/07 09:51:54;;;;;;;2.08;1.50;;;;;;;;;;5012732;28;20046;-66
2023/01/07 09:54:27;;;;;;;2.78;1.33;;;;;;;;;;5016862;28;20053;-68
2023/01/07 09:56:53;;;;;;;6.00;1.63;;;;;;;;;;5006338;28;20804;-68
2023/01/07 09:59:19;;;;;;;2.53;1.58;;;;;;;;;;4991403;28;20651;-68
2023/01/07 10:01:52;;;;;;;1.60;1.40;;;;;;;;;;5001539;28;20050;-68
2023/01/07 10:04:27;;;;;;;1.73;1.40;;;;;;;;;;5004737;28;20061;-67
2023/01/07 10:07:10;;;;;;;3.25;1.80;;;;;;;;;;5002865;28;20046;-70
2023/01/07 10:09:43;;;;;;;2.83;1.35;;;;;;;;;;5020611;28;20064;-69
2023/01/07 10:12:25;;;;;;;2.38;1.35;;;;;;;;;;5011505;28;20494;-68
2023/01/07 10:15:07;;;;;;;3.03;1.20;;;;;;;;;;5006145;28;20482;-68
2023/01/07 10:17:33;;;;;;;2.65;1.60;;;;;;;;;;4995561;28;20049;-68
2023/01/07 10:20:06;;;;;;;1.25;1.08;;;;;;;;;;5012786;28;20054;-67
2023/01/07 10:22:38;;;;;;;3.22;1.23;;;;;;;;;;5012644;28;20053;-68
2023/01/07 10:25:25;;;;;;;3.53;1.30;;;;;;;;;;5008300;28;20049;-69
2023/01/07 10:27:53;;;;;;;3.28;1.38;;;;;;;;;;4998712;28;20042;-68
2023/01/07 10:30:24;;;;;;;3.80;1.73;;;;;;;;;;5019388;28;20132;-70
2023/01/07 10:33:14;;;;;;;2.70;1.00;;;;;;;;;;4999983;28;20085;-67
2023/01/07 10:35:40;;;;;;;2.00;1.00;;;;;;;;;;5000696;28;20057;-69
2023/01/07 10:38:13;;;;;;;4.47;1.25;;;;;;;;;;5007877;28;20050;-68
2023/01/07 10:40:47;;;;;;;1.52;0.90;;;;;;;;;;5020026;28;20053;-64
2023/01/07 10:43:21;;;;;;;2.70;1.15;;;;;;;;;;5013506;28;20045;-63
2023/01/07 10:46:06;;;;;;;3.10;0.95;;;;;;;;;;5012346;28;20046;-63
2023/01/07 10:48:45;;;;;;;3.97;1.27;;;;;;;;;;5011037;28;20096;-65
2023/01/07 10:51:16;;;;;;;2.55;1.10;;;;;;;;;;5011939;28;20042;-64
2023/01/07 10:54:06;;;;;;;2.42;1.60;;;;;;;;;;5009462;28;20389;-65
2023/01/07 10:56:38;;;;;;;3.47;1.33;;;;;;;;;;5008394;28;20493;-65
2023/01/07 10:59:04;;;;;;;1.70;1.25;;;;;;;;;;5010493;28;20225;-64
2023/01/07 11:01:34;;;;;;;1.30;1.08;;;;;;;;;;5005505;28;20940;-63
2023/01/07 11:04:02;;;;;;;1.95;1.35;;;;;;;;;;5010785;28;20507;-63
2023/01/07 11:06:42;;;;;;;1.77;1.30;;;;;;;;;;5005366;28;20421;-66
2023/01/07 11:09:11;;;;;;;1.75;1.13;;;;;;;;;;5009191;28;20046;-67
2023/01/07 11:11:38;;;;;;;4.93;1.38;;;;;;;;;;5015182;28;20057;-67
2023/01/07 11:14:09;;;;;;;1.92;1.20;;;;;;;;;;5010298;28;20049;-67
2023/01/07 11:16:38;;;;;;;1.40;1.27;;;;;;;;;;5007082;28;20057;-68
2023/01/07 11:19:05;;;;;;;1.75;1.17;;;;;;;;;;5008210;28;20053;-65
2023/01/07 11:21:41;;;;;;;1.67;1.00;;;;;;;;;;5010425;28;20461;-65
2023/01/07 11:24:33;;;;;;;2.50;1.10;;;;;;;;;;5002395;28;20050;-67
2023/01/07 11:27:01;;;;;;;2.22;1.05;;;;;;;;;;4992624;28;20050;-66
2023/01/07 11:29:31;;;;;;;1.42;1.13;;;;;;;;;;5002664;28;20042;-67
2023/01/07 11:31:59;;;;;;;1.35;0.90;;;;;;;;;;5010332;28;20042;-67
2023/01/07 11:34:27;;;;;;;1.67;0.98;;;;;;;;;;5009534;28;20107;-67
2023/01/07 11:36:53;;;;;;;1.90;1.00;;;;;;;;;;5010130;28;20454;-67
2023/01/07 11:39:21;;;;;;;3.63;1.17;;;;;;;;;;5017722;28;20057;-67
2023/01/07 11:41:51;;;;;;;2.73;0.97;;;;;;;;;;5015022;28;20923;-67
2023/01/07 11:47:56;;;;;;;1.75;0.90;;;;;;;;;;5005785;28;20131;-67
2023/01/07 11:50:29;;;;;;;2.15;0.98;;;;;;;;;;5021377;28;20063;-68
2023/01/07 11:52:56;;;;;;;1.55;0.85;;;;;;;;;;5018298;28;20045;-67
2023/01/07 11:55:23;;;;;;;1.70;1.00;;;;;;;;;;4999775;28;20052;-68
2023/01/07 11:57:53;;;;;;;1.13;0.93;;;;;;;;;;5005538;28;20045;-67
2023/01/07 12:00:39;;;;;;;2.10;1.02;;;;;;;;;;5002073;28;20651;-67
2023/01/07 12:03:10;;;;;;;1.08;0.98;;;;;;;;;;5017457;28;20048;-67
2023/01/07 12:05:37;;;;;;;1.10;1.00;;;;;;;;;;5001486;28;20566;-68
2023/01/07 12:08:04;;;;;;;1.83;1.40;;;;;;;;;;5018380;28;20056;-67
2023/01/07 12:10:35;;;;;;;1.13;0.98;;;;;;;;;;5007173;28;20108;-67
2023/01/07 12:13:05;;;;;;;3.38;1.02;;;;;;;;;;5011920;28;20057;-67
2023/01/07 12:15:36;;;;;;;1.55;1.15;;;;;;;;;;5008511;28;20139;-67
2023/01/07 12:18:05;;;;;;;1.90;1.13;;;;;;;;;;5011433;28;20578;-67
2023/01/07 12:20:31;;;;;;;1.98;1.30;;;;;;;;;;4996092;28;20868;-67
2023/01/07 12:23:06;;;;;;;4.82;1.23;;;;;;;;;;5018869;28;20055;-68
2023/01/07 12:25:35;;;;;;;1.35;0.90;;;;;;;;;;5005795;28;20508;-66
2023/01/07 12:28:21;;;;;;;2.60;1.30;;;;;;;;;;5012656;28;20374;-67
2023/01/07 12:31:00;;;;;;;1.17;0.95;;;;;;;;;;5013193;28;20054;-67
2023/01/07 12:33:39;;;;;;;1.63;1.30;;;;;;;;;;5001408;28;20060;-67
2023/01/07 12:36:19;;;;;;;3.70;1.20;;;;;;;;;;5005717;28;20053;-67
2023/01/07 12:38:51;;;;;;;3.83;1.20;;;;;;;;;;5001269;28;20504;-67
2023/01/07 12:41:26;;;;;;;1.65;1.23;;;;;;;;;;5015656;28;20053;-67
2023/01/07 12:44:06;;;;;;;1.73;1.38;;;;;;;;;;4998372;28;20050;-65
2023/01/07 12:46:39;;;;;;;2.45;1.48;;;;;;;;;;4999961;28;20055;-66
2023/01/07 12:49:24;;;;;;;3.60;1.40;;;;;;;;;;4997673;28;20057;-67
2023/01/07 12:52:13;;;;;;;2.90;1.55;;;;;;;;;;5009259;28;20413;-67
2023/01/07 12:54:52;;;;;;;1.92;1.33;;;;;;;;;;4986742;28;20059;-67
2023/01/07 12:57:29;;;;;;;1.20;1.08;;;;;;;;;;5016040;28;20054;-68
2023/01/07 12:59:56;;;;;;;1.97;1.40;;;;;;;;;;5020525;28;20397;-67
2023/01/07 13:02:28;;;;;;;2.42;1.35;;;;;;;;;;4996926;28;20053;-68
2023/01/07 13:05:01;;;;;;;2.95;1.58;;;;;;;;;;5018622;28;20056;-68
2023/01/07 13:07:28;;;;;;;2.58;1.45;;;;;;;;;;5004466;28;20482;-67
2023/01/07 13:09:59;;;;;;;2.75;1.50;;;;;;;;;;5013199;28;20128;-67
2023/01/07 13:12:45;;;;;;;2.33;1.33;;;;;;;;;;5001562;28;20056;-67
2023/01/07 13:15:26;;;;;;;1.95;1.48;;;;;;;;;;4999580;28;20815;-66
2023/01/07 13:17:55;;;;;;;2.97;1.75;;;;;;;;;;4999809;28;20065;-67
2023/01/07 13:20:40;;;;;;;4.68;1.80;;;;;;;;;;5008801;28;20600;-67
2023/01/07 13:23:10;;;;;;;2.53;1.48;;;;;;;;;;5010042;28;20049;-67
2023/01/07 13:25:45;;;;;;;2.85;1.70;;;;;;;;;;5002473;28;20053;-67
2023/01/07 13:28:32;;;;;;;2.92;1.75;;;;;;;;;;5002151;28;20049;-67
2023/01/07 13:31:17;;;;;;;2.47;1.60;;;;;;;;;;4995189;28;20065;-68
2023/01/07 13:33:59;;;;;;;3.53;1.88;;;;;;;;;;5012683;28;20053;-67
2023/01/07 13:36:43;;;;;;;2.83;1.83;;;;;;;;;;5000038;28;20108;-67
2023/01/07 13:39:29;;;;;;;2.70;1.88;;;;;;;;;;5010431;28;20049;-67
2023/01/07 13:41:55;;;;;;;3.90;2.13;;;;;;;;;;4993044;28;20049;-67
2023/01/07 13:44:33;;;;;;;4.68;2.15;;;;;;;;;;4998382;28;20045;-67
2023/01/07 13:47:01;;;;;;;2.63;1.73;;;;;;;;;;4997574;28;20053;-67
2023/01/07 13:49:29;;;;;;;3.35;1.77;;;;;;;;;;5002855;28;20501;-68
2023/01/07 13:51:55;;;;;;;2.70;1.90;;;;;;;;;;5004265;28;20067;-68
2023/01/07 13:54:40;;;;;;;3.78;2.00;;;;;;;;;;5000145;28;20341;-67
2023/01/07 13:57:22;;;;;;;3.67;2.08;;;;;;;;;;5003654;28;20352;-67
2023/01/07 13:59:58;;;;;;;3.45;2.20;;;;;;;;;;5001895;28;20104;-68
2023/01/07 14:02:25;;;;;;;4.70;2.20;;;;;;;;;;5014088;28;20055;-67
2023/01/07 14:05:05;;;;;;;4.28;2.33;;;;;;;;;;5003239;28;20053;-67
2023/01/07 14:07:42;;;;;;;4.53;2.15;;;;;;;;;;5009223;28;20457;-67
2023/01/07 14:10:28;;;;;;;4.13;2.42;;;;;;;;;;4998956;28;20344;-67
2023/01/07 14:13:03;;;;;;;3.75;2.35;;;;;;;;;;5009027;28;20057;-68
2023/01/07 14:15:39;;;;;;;4.45;2.78;;;;;;;;;;5008908;28;20567;-67
2023/01/07 14:18:15;;;;;;;3.50;2.28;;;;;;;;;;5008042;28;20073;-68
2023/01/07 14:20:46;;;;;;;4.60;2.70;;;;;;;;;;5008970;28;20050;-68
2023/01/07 14:23:18;;;;;;;4.65;2.90;;;;;;;;;;4985195;28;20416;-67
2023/01/07 14:25:45;;;;;;;4.00;2.58;;;;;;;;;;5001943;28;20481;-67
2023/01/07 14:28:30;;;;;;;4.93;2.85;;;;;;;;;;4983528;28;20048;-69
2023/01/07 14:30:57;;;;;;;5.15;2.65;;;;;;;;;;5013809;28;20053;-67
2023/01/07 14:33:23;;;;;;;5.88;3.05;;;;;;;;;;5008269;28;20565;-68
2023/01/07 14:35:55;;;;;;;4.38;2.95;;;;;;;;;;5011924;28;20457;-67
2023/01/07 14:38:30;;;;;;;6.47;3.28;;;;;;;;;;4999591;28;20076;-68
2023/01/07 14:40:59;;;;;;;3.85;2.78;;;;;;;;;;5008534;28;20058;-68
2023/01/07 14:43:44;;;;;;;4.43;3.15;;;;;;;;;;5005823;28;20409;-67
2023/01/07 14:46:23;;;;;;;5.75;3.20;;;;;;;;;;5010185;28;20057;-68
2023/01/07 14:49:02;;;;;;;4.57;3.03;;;;;;;;;;5008014;28;20046;-67
2023/01/07 14:51:31;;;;;;;4.55;3.00;;;;;;;;;;4995233;28;20042;-67
2023/01/07 14:54:16;;;;;;;3.97;2.75;;;;;;;;;;5007483;28;20425;-67
2023/01/07 14:57:03;;;;;;;4.20;2.63;;;;;;;;;;5007386;28;20055;-67
2023/01/07 14:59:57;;;;;;;4.00;2.67;;;;;;;;;;5010150;28;20045;-68
2023/01/07 15:02:31;;;;;;;4.32;2.65;;;;;;;;;;5002017;28;20046;-67
2023/01/07 15:05:07;;;;;;;4.13;2.75;;;;;;;;;;5000939;28;20077;-67
2023/01/07 15:07:35;;;;;;;3.50;2.35;;;;;;;;;;4996162;28;20068;-69
2023/01/07 15:16:00;;;;;;;4.78;2.05;;;;;;;;;;5007135;28;20049;-67
2023/01/07 15:18:27;;;;;;;3.88;2.17;;;;;;;;;;5003870;28;20041;-67
2023/01/07 15:21:26;;;;;;;3.72;2.22;;;;;;;;;;4995982;28;20054;-67
2023/01/07 15:24:04;;;;;;;4.22;2.20;;;;;;;;;;4969943;28;20050;-67
2023/01/07 15:26:43;;;;;;;5.50;2.30;;;;;;;;;;5000694;28;20145;-67
2023/01/07 15:29:09;;;;;;;4.40;2.55;;;;;;;;;;5005514;28;20046;-67
2023/01/07 15:31:39;;;;;;;3.33;2.40;;;;;;;;;;4998763;28;20046;-67
2023/01/07 15:34:10;;;;;;;7.20;2.63;;;;;;;;;;5001648;28;20046;-67
2023/01/07 15:36:41;;;;;;;5.72;2.72;;;;;;;;;;5004237;28;21403;-67
2023/01/07 15:39:15;;;;;;;3.40;2.20;;;;;;;;;;5010559;28;20128;-67
2023/01/07 15:41:41;;;;;;;3.55;2.10;;;;;;;;;;5010165;28;20060;-67
2023/01/07 15:44:19;;;;;;;3.83;2.35;;;;;;;;;;5004495;28;20785;-68